createdAt,value
2022-10-17T00:02:46.070Z,101525.95
2022-10-17T00:07:52.512Z,101530.40
2022-10-17T00:12:58.363Z,101536.08
2022-10-17T00:18:04.873Z,101543.26
2022-10-17T00:23:11.051Z,101546.45
2022-10-17T00:28:17.491Z,101542.22
2022-10-17T00:33:23.467Z,101537.83
2022-10-17T00:38:29.456Z,101533.80
2022-10-17T00:43:53.131Z,101542.83
2022-10-17T00:49:01.869Z,101545.81
2022-10-17T00:54:09.876Z,101552.41
2022-10-17T00:59:17.818Z,101557.66
2022-10-17T01:04:24.262Z,101551.48
2022-10-17T01:09:32.075Z,101551.77
2022-10-17T01:14:47.535Z,101549.51
2022-10-17T01:20:14.931Z,101548.48
2022-10-17T01:25:30.365Z,101553.77
2022-10-17T01:30:56.488Z,101554.14
2022-10-17T01:36:11.504Z,101546.86
2022-10-17T01:41:25.775Z,101540.70
2022-10-17T01:46:36.437Z,101546.10
2022-10-17T01:51:46.662Z,101553.09
2022-10-17T01:56:58.425Z,101547.95
2022-10-17T02:02:06.137Z,101543.35
2022-10-17T02:07:14.793Z,101548.25
2022-10-17T02:12:41.550Z,101557.80
2022-10-17T02:17:58.110Z,101560.32
2022-10-17T02:23:10.552Z,101555.83
2022-10-17T02:28:24.321Z,101554.92
2022-10-17T02:33:35.185Z,101558.86
2022-10-17T02:38:43.282Z,101561.68
2022-10-17T02:43:52.675Z,101575.85
2022-10-17T02:49:02.853Z,101582.22
2022-10-17T02:54:14.145Z,101583.64
2022-10-17T02:59:24.912Z,101590.61
2022-10-17T03:04:30.924Z,101597.67
2022-10-17T03:09:36.906Z,101610.41
2022-10-17T03:14:43.066Z,101617.90
2022-10-17T03:19:48.998Z,101616.14
2022-10-17T03:24:54.723Z,101617.38
2022-10-17T03:30:00.726Z,101622.44
2022-10-17T03:35:08.397Z,101630.45
2022-10-17T03:40:18.016Z,101637.73
2022-10-17T03:45:24.110Z,101627.59
2022-10-17T03:50:30.519Z,101622.92
2022-10-17T03:55:36.849Z,101614.71
2022-10-17T04:00:43.295Z,101610.10
2022-10-17T04:05:49.330Z,101623.80
2022-10-17T04:11:00.315Z,101628.53
2022-10-17T04:16:09.280Z,101632.95
2022-10-17T04:21:19.294Z,101645.94
2022-10-17T04:26:26.380Z,101647.80
2022-10-17T04:31:32.268Z,101644.27
2022-10-17T04:36:44.050Z,101644.45
2022-10-17T04:41:50.051Z,101645.50
2022-10-17T04:46:55.884Z,101659.70
2022-10-17T04:52:02.167Z,101663.78
2022-10-17T04:57:17.574Z,101667.77
2022-10-17T05:02:30.828Z,101669.00
2022-10-17T05:07:41.323Z,101677.98
2022-10-17T05:12:53.169Z,101686.17
2022-10-17T05:18:02.318Z,101695.95
2022-10-17T05:23:08.781Z,101700.66
2022-10-17T05:28:18.588Z,101695.02
2022-10-17T05:33:25.758Z,101698.71
2022-10-17T05:38:33.241Z,101715.13
2022-10-17T05:43:39.483Z,101721.08
2022-10-17T05:48:45.913Z,101728.14
2022-10-17T05:53:52.321Z,101741.54
2022-10-17T05:59:02.480Z,101747.23
2022-10-17T06:04:35.269Z,101754.29
2022-10-17T06:09:42.088Z,101751.11
2022-10-17T06:14:47.969Z,101737.23
2022-10-17T06:19:54.569Z,101748.42
2022-10-17T06:25:02.023Z,101747.11
2022-10-17T06:30:10.104Z,101751.38
2022-10-17T06:35:16.957Z,101755.45
2022-10-17T06:40:23.017Z,101759.23
2022-10-17T06:45:29.149Z,101766.45
2022-10-17T06:51:11.840Z,101766.59
2022-10-17T06:56:37.834Z,101778.08
2022-10-17T07:01:58.039Z,101789.56
2022-10-17T07:07:04.619Z,101785.31
2022-10-17T07:12:12.867Z,101784.29
2022-10-17T07:17:23.087Z,101783.14
2022-10-17T07:22:29.141Z,101786.25
2022-10-17T07:27:36.875Z,101786.38
2022-10-17T07:32:43.511Z,101785.78
2022-10-17T07:37:49.651Z,101781.93
2022-10-17T07:42:58.152Z,101795.34
2022-10-17T07:48:05.437Z,101806.80
2022-10-17T07:53:12.590Z,101811.55
2022-10-17T07:58:19.023Z,101818.06
2022-10-17T08:03:24.757Z,101826.67
2022-10-17T08:08:31.166Z,101831.08
2022-10-17T08:13:38.986Z,101839.31
2022-10-17T08:18:45.106Z,101836.56
2022-10-17T08:23:50.959Z,101835.90
2022-10-17T08:28:57.010Z,101839.59
2022-10-17T08:34:03.105Z,101834.34
2022-10-17T08:39:08.967Z,101829.35
2022-10-17T08:44:31.374Z,101826.80
2022-10-17T08:49:47.034Z,101824.63
2022-10-17T08:54:53.118Z,101821.83
2022-10-17T08:59:59.249Z,101819.65
2022-10-17T09:05:28.643Z,101818.34
2022-10-17T09:10:38.071Z,101808.27
2022-10-17T09:16:01.410Z,101806.80
2022-10-17T09:21:18.446Z,101804.98
2022-10-17T09:26:25.983Z,101806.90
2022-10-17T09:31:40.973Z,101804.48
2022-10-17T09:36:46.885Z,101809.56
2022-10-17T09:41:55.540Z,101809.95
2022-10-17T09:47:26.182Z,101809.04
2022-10-17T09:52:36.360Z,101807.06
2022-10-17T09:57:57.313Z,101803.70
2022-10-17T10:03:17.334Z,101797.10
2022-10-17T10:08:26.844Z,101793.84
2022-10-17T10:13:33.964Z,101788.25
2022-10-17T10:18:40.151Z,101784.59
2022-10-17T10:24:02.600Z,101782.55
2022-10-17T10:29:22.801Z,101780.59
2022-10-17T10:34:31.381Z,101776.11
2022-10-17T10:39:50.243Z,101782.06
2022-10-17T10:44:59.185Z,101786.27
2022-10-17T10:50:23.806Z,101780.45
2022-10-17T10:55:34.762Z,101773.08
2022-10-17T11:09:24.691Z,101774.07
2022-10-17T11:14:38.502Z,101776.98
2022-10-17T11:19:53.232Z,101771.13
2022-10-17T11:25:03.923Z,101767.55
2022-10-17T11:30:14.989Z,101765.44
2022-10-17T11:35:24.682Z,101768.58
2022-10-17T11:40:33.997Z,101770.23
2022-10-17T11:55:56.278Z,101775.63
2022-10-17T12:01:12.921Z,101777.69
2022-10-17T12:06:29.447Z,101779.20
2022-10-17T12:11:45.778Z,101777.67
2022-10-17T12:16:52.418Z,101773.00
2022-10-17T12:22:02.473Z,101768.01
2022-10-17T12:27:36.051Z,101768.13
2022-10-17T12:33:07.487Z,101761.33
2022-10-17T12:38:30.176Z,101753.91
2022-10-17T12:49:19.688Z,101738.67
2022-10-17T12:54:26.099Z,101739.34
2022-10-17T12:59:32.716Z,101735.73
2022-10-17T13:04:38.906Z,101730.91
2022-10-17T13:09:46.041Z,101731.20
2022-10-17T13:14:53.987Z,101731.62
2022-10-17T13:20:00.355Z,101723.46
2022-10-17T13:25:14.597Z,101726.48
2022-10-17T13:30:29.416Z,101728.50
2022-10-17T13:41:34.438Z,101721.83
2022-10-17T13:46:39.781Z,101719.16
2022-10-17T13:51:48.821Z,101719.27
2022-10-17T13:56:59.607Z,101715.18
2022-10-17T14:02:12.603Z,101714.73
2022-10-17T14:07:41.589Z,101711.60
2022-10-17T14:12:58.176Z,101707.20
2022-10-17T14:18:07.939Z,101698.23
2022-10-17T14:28:49.645Z,101698.33
2022-10-17T14:33:56.508Z,101692.30
2022-10-17T14:39:03.454Z,101688.67
2022-10-17T14:44:16.056Z,101688.36
2022-10-17T14:50:28.157Z,101686.73
2022-10-17T14:55:36.449Z,101682.90
2022-10-17T15:00:42.388Z,101686.67
2022-10-17T15:05:50.046Z,101686.46
2022-10-17T15:10:56.030Z,101690.88
2022-10-17T15:16:01.973Z,101686.69
2022-10-17T15:22:08.605Z,101685.09
2022-10-17T15:27:18.003Z,101689.98
2022-10-17T15:32:24.111Z,101695.63
2022-10-17T15:37:37.584Z,101691.08
2022-10-17T15:42:43.729Z,101687.38
2022-10-17T15:47:54.997Z,101682.23
2022-10-17T15:53:01.462Z,101684.44
2022-10-17T15:58:10.967Z,101689.42
2022-10-17T16:03:17.131Z,101693.04
2022-10-17T16:08:23.303Z,101688.89
2022-10-17T16:13:29.437Z,101684.53
2022-10-17T16:18:35.653Z,101682.34
2022-10-17T16:23:41.751Z,101680.00
2022-10-17T16:28:48.159Z,101675.79
2022-10-17T16:33:56.110Z,101669.41
2022-10-17T16:39:02.065Z,101673.30
2022-10-17T16:44:10.669Z,101670.46
2022-10-17T16:49:18.342Z,101666.92
2022-10-17T16:54:26.773Z,101667.01
2022-10-17T16:59:34.128Z,101668.23
2022-10-17T17:04:40.108Z,101670.35
2022-10-17T17:09:46.131Z,101669.45
2022-10-17T17:14:51.959Z,101661.98
2022-10-17T17:19:57.948Z,101661.45
2022-10-17T17:25:04.051Z,101667.73
2022-10-17T17:30:11.727Z,101668.80
2022-10-17T17:35:17.874Z,101667.48
2022-10-17T17:40:24.003Z,101667.00
2022-10-17T17:45:29.862Z,101665.52
2022-10-17T17:50:38.460Z,101663.08
2022-10-17T17:55:44.668Z,101662.69
2022-10-17T18:00:50.893Z,101666.14
2022-10-17T18:05:56.897Z,101665.55
2022-10-17T18:11:03.956Z,101665.70
2022-10-17T18:16:13.379Z,101668.38
2022-10-17T18:21:19.566Z,101667.52
2022-10-17T18:26:25.862Z,101666.67
2022-10-17T18:31:36.162Z,101666.24
2022-10-17T18:36:42.570Z,101664.45
2022-10-17T18:41:48.558Z,101660.98
2022-10-17T18:46:55.171Z,101657.26
2022-10-17T18:52:01.869Z,101653.60
2022-10-17T18:57:07.821Z,101652.36
2022-10-17T19:02:13.642Z,101653.42
2022-10-17T19:07:20.440Z,101658.89
2022-10-17T19:12:26.710Z,101651.53
2022-10-17T19:17:32.958Z,101649.47
2022-10-17T19:22:39.163Z,101649.17
2022-10-17T19:27:45.188Z,101645.11
2022-10-17T19:32:51.350Z,101647.16
2022-10-17T19:37:57.370Z,101645.10
2022-10-17T19:43:03.180Z,101642.39
2022-10-17T19:48:09.330Z,101638.86
2022-10-17T19:53:15.569Z,101637.84
2022-10-17T19:58:22.238Z,101641.51
2022-10-17T20:03:29.267Z,101639.45
2022-10-17T20:08:35.283Z,101631.84
2022-10-17T20:13:41.959Z,101624.23
2022-10-17T20:18:47.918Z,101617.98
2022-10-17T20:23:53.851Z,101616.52
2022-10-17T20:29:02.042Z,101612.32
2022-10-17T20:34:08.119Z,101611.85
2022-10-17T20:39:16.256Z,101608.00
2022-10-17T20:44:22.286Z,101604.58
2022-10-17T20:49:28.117Z,101598.89
2022-10-17T20:54:34.056Z,101586.81
2022-10-17T20:59:40.175Z,101579.23
2022-10-17T21:04:48.160Z,101573.50
2022-10-17T21:09:54.049Z,101571.56
2022-10-17T21:15:00.170Z,101576.12
2022-10-17T21:20:07.590Z,101579.99
2022-10-17T21:25:13.460Z,101576.24
2022-10-17T21:30:21.175Z,101576.39
2022-10-17T21:35:26.997Z,101568.86
2022-10-17T21:40:33.004Z,101565.77
2022-10-17T21:45:39.209Z,101564.42
2022-10-17T21:50:45.345Z,101560.89
2022-10-17T21:55:51.198Z,101553.92
2022-10-17T22:01:05.084Z,101547.83
2022-10-17T22:06:38.753Z,101547.55
2022-10-17T22:11:38.033Z,101549.78
2022-10-17T22:16:45.275Z,101545.73
2022-10-17T22:21:51.441Z,101547.58
2022-10-17T22:26:57.234Z,101545.96
2022-10-17T22:32:03.096Z,101543.23
2022-10-17T22:37:08.921Z,101546.00
2022-10-17T22:42:15.018Z,101542.52
2022-10-17T22:47:20.831Z,101541.35
2022-10-17T22:52:26.613Z,101537.05
2022-10-17T22:57:32.469Z,101537.77
2022-10-17T23:02:38.660Z,101537.96
2022-10-17T23:07:44.849Z,101536.05
2022-10-17T23:12:50.705Z,101534.39
2022-10-17T23:17:56.480Z,101534.67
2022-10-17T23:23:02.392Z,101532.55
2022-10-17T23:28:09.282Z,101531.09
2022-10-17T23:33:15.560Z,101528.59
2022-10-17T23:38:21.444Z,101531.30
2022-10-17T23:43:27.601Z,101531.58
2022-10-17T23:48:33.397Z,101531.73
2022-10-17T23:53:40.192Z,101531.98
2022-10-17T23:58:46.622Z,101528.55
